Time;durP1;ratioP1;P1;durP2;ratioP2;P2;SDS_P1;SDS_P2;PMS_P1;PMS_P2;Temp;Humidity;BMP_temperature;BMP_pressure;BME280_temperature;BME280_humidity;BME280_pressure;Samples;Min_cycle;Max_cycle;Signal;HPM_P1;HPM_P2
2022/02/07 00:01:42;;;;;;;29.25;15.93;;;;;;;3.79;53.40;98354.94;3388629;29;19923;-76
2022/02/07 00:03:38;;;;;;;31.40;15.68;;;;;;;3.76;53.03;98355.31;3382971;29;20055;-75
2022/02/07 00:05:24;;;;;;;27.63;15.48;;;;;;;3.75;53.38;98346.59;3375996;29;20045;-77
2022/02/07 00:07:05;;;;;;;38.53;20.30;;;;;;;3.74;53.06;98346.78;3374667;29;20040;-77
2022/02/07 00:08:46;;;;;;;31.83;17.23;;;;;;;3.71;53.33;98338.22;3388072;29;20155;-74
2022/02/07 00:10:27;;;;;;;30.35;17.30;;;;;;;3.69;53.16;98345.53;3389262;29;20040;-74
2022/02/07 00:12:09;;;;;;;36.40;17.13;;;;;;;3.65;53.38;98330.25;3362832;29;20448;-77
2022/02/07 00:13:49;;;;;;;31.58;17.38;;;;;;;3.72;53.46;98345.16;3394353;29;20051;-75
2022/02/07 00:15:30;;;;;;;34.33;17.05;;;;;;;3.71;53.32;98340.06;3402546;29;20044;-75
2022/02/07 00:17:11;;;;;;;35.55;18.73;;;;;;;3.70;53.39;98346.34;3399485;29;20100;-76
2022/02/07 00:18:52;;;;;;;34.95;16.80;;;;;;;3.67;53.50;98344.06;3375978;29;20052;-75
2022/02/07 00:20:34;;;;;;;32.92;16.50;;;;;;;3.68;53.28;98346.50;3385503;29;20043;-76
2022/02/07 00:22:14;;;;;;;31.95;16.48;;;;;;;3.64;53.41;98334.72;3376187;29;20534;-76
2022/02/07 00:23:55;;;;;;;29.90;16.67;;;;;;;3.67;53.38;98339.63;3373806;29;20075;-75
2022/02/07 00:25:36;;;;;;;27.23;16.25;;;;;;;3.67;53.45;98339.63;3381156;29;20503;-75
2022/02/07 00:27:17;;;;;;;33.13;16.08;;;;;;;3.68;53.47;98333.34;3399669;29;20103;-75
2022/02/07 00:28:57;;;;;;;29.55;16.60;;;;;;;3.72;53.43;98333.81;3389235;29;20638;-76
2022/02/07 00:30:38;;;;;;;30.27;16.35;;;;;;;3.71;53.28;98332.16;3388071;29;20048;-76
2022/02/07 00:32:19;;;;;;;34.15;17.35;;;;;;;3.70;53.62;98331.34;3375574;29;20100;-74
2022/02/07 00:34:00;;;;;;;30.80;16.27;;;;;;;3.70;53.47;98335.81;3372860;29;20142;-75
2022/02/07 00:35:41;;;;;;;29.15;15.20;;;;;;;3.71;53.63;98332.16;3394958;29;20951;-75
2022/02/07 00:37:27;;;;;;;31.30;16.38;;;;;;;3.71;53.65;98327.69;3402506;29;20495;-76
2022/02/07 00:39:15;;;;;;;36.65;17.60;;;;;;;3.75;53.61;98332.63;3402248;29;20502;-78
2022/02/07 00:41:00;;;;;;;29.02;14.77;;;;;;;3.74;53.67;98325.69;3362390;29;20058;-76
2022/02/07 00:43:14;;;;;;;26.17;15.23;;;;;;;3.79;53.89;98334.69;3385338;29;20559;-76
2022/02/07 00:44:45;;;;;;;28.88;15.45;;;;;;;3.80;53.65;98333.69;3388018;29;20503;-74
2022/02/07 00:46:34;;;;;;;28.35;15.10;;;;;;;3.77;53.61;98325.31;3387861;29;20198;-75
2022/02/07 00:48:15;;;;;;;29.63;16.23;;;;;;;3.80;53.42;98322.34;3388620;29;20055;-75
2022/02/07 00:49:56;;;;;;;26.70;14.77;;;;;;;3.77;53.69;98320.91;3382654;29;20096;-75
2022/02/07 00:51:37;;;;;;;28.42;16.95;;;;;;;3.79;53.58;98324.13;3373824;29;20123;-77
2022/02/07 00:53:18;;;;;;;29.60;14.95;;;;;;;3.79;53.86;98324.13;3386064;29;20067;-77
2022/02/07 00:55:00;;;;;;;;;;;;;;;3.92;53.42;98316.41;3375515;29;20090;-75
2022/02/07 00:56:41;;;;;;;27.83;13.45;;;;;;;3.83;53.40;98314.88;3386443;29;20058;-74
2022/02/07 00:58:23;;;;;;;28.30;13.95;;;;;;;3.83;53.73;98309.59;3385901;29;20079;-75
2022/02/07 01:00:05;;;;;;;27.42;15.10;;;;;;;3.81;53.65;98314.22;3390346;29;20538;-75
2022/02/07 01:01:49;;;;;;;25.70;14.77;;;;;;;3.83;53.85;98308.78;3387971;29;20127;-76
2022/02/07 01:03:30;;;;;;;25.98;14.77;;;;;;;3.85;53.90;98323.41;3374811;29;20048;-75
2022/02/07 01:05:14;;;;;;;30.33;14.98;;;;;;;3.85;54.13;98318.16;3374429;29;20572;-74
2022/02/07 01:06:55;;;;;;;;;;;;;;;3.97;53.69;98320.28;3388448;29;20131;-75
2022/02/07 01:08:46;;;;;;;24.08;12.43;;;;;;;3.91;53.93;98322.66;3387979;29;20383;-74
2022/02/07 01:16:45;;;;;;;25.85;15.15;;;;;;;3.91;54.18;98313.94;3385086;29;20559;-75
2022/02/07 01:50:47;;;;;;;22.60;11.55;;;;;;;3.84;54.70;98274.31;3374390;29;20048;-74
2022/02/07 01:52:43;;;;;;;27.80;12.73;;;;;;;4.01;54.83;98295.19;3374362;29;20536;-76
2022/02/07 01:56:13;;;;;;;28.25;13.20;;;;;;;4.08;54.75;98290.78;3375591;29;20064;-73
2022/02/07 01:58:03;;;;;;;26.73;12.55;;;;;;;4.07;54.67;98281.25;3374762;29;20040;-73
2022/02/07 01:59:46;;;;;;;23.10;11.35;;;;;;;4.03;54.56;98277.38;3374579;29;20108;-73
2022/02/07 02:01:29;;;;;;;23.33;12.85;;;;;;;4.07;54.58;98289.97;3376963;29;20095;-78
2022/02/07 02:03:10;;;;;;;20.63;11.60;;;;;;;4.07;54.81;98283.91;3359566;29;20063;-76
2022/02/07 02:05:06;;;;;;;23.50;11.30;;;;;;;4.12;54.62;98292.06;3346574;29;20406;-76
2022/02/07 02:06:53;;;;;;;25.60;12.13;;;;;;;4.11;54.75;98279.91;3372822;29;20049;-74
2022/02/07 02:08:39;;;;;;;22.50;12.48;;;;;;;4.16;54.79;98282.78;3385743;29;20075;-75
2022/02/07 02:10:21;;;;;;;24.40;11.52;;;;;;;4.09;54.86;98263.44;3374050;29;20045;-77
2022/02/07 02:12:05;;;;;;;27.52;12.13;;;;;;;4.03;54.90;98251.03;3358726;29;20080;-76
2022/02/07 02:20:17;;;;;;;17.15;10.10;;;;;;;4.17;54.77;98263.31;3375121;29;20092;-71
2022/02/07 02:37:59;;;;;;;19.48;9.88;;;;;;;4.22;54.81;98265.38;3348289;29;20057;-73
2022/02/07 02:47:05;;;;;;;14.88;9.63;;;;;;;4.12;55.31;98265.69;3397794;29;20044;-72
2022/02/07 02:48:46;;;;;;;15.68;7.88;;;;;;;4.15;55.53;98271.41;3386831;29;20036;-72
2022/02/07 02:50:29;;;;;;;16.90;8.63;;;;;;;4.15;55.43;98270.59;3390424;29;20056;-75
2022/02/07 02:52:11;;;;;;;14.70;7.63;;;;;;;4.15;55.57;98266.13;3372398;29;20508;-73
2022/02/07 02:53:52;;;;;;;13.77;8.40;;;;;;;4.14;55.54;98258.41;3385692;29;20044;-72
2022/02/07 02:55:34;;;;;;;16.13;7.22;;;;;;;4.14;55.75;98253.97;3381837;29;20591;-73
2022/02/07 02:57:18;;;;;;;12.35;6.80;;;;;;;4.21;55.68;98263.75;3387336;29;20066;-73
2022/02/07 02:58:58;;;;;;;17.13;7.07;;;;;;;4.21;55.72;98261.94;3387919;29;20039;-73
2022/02/07 03:00:48;;;;;;;13.48;6.25;;;;;;;4.20;55.86;98260.28;3386956;29;20046;-74
2022/02/07 03:02:55;;;;;;;11.55;6.57;;;;;;;4.20;55.62;98259.47;3370371;29;20057;-74
2022/02/07 03:04:36;;;;;;;16.40;8.38;;;;;;;4.23;55.74;98267.81;3387229;29;20079;-71
2022/02/07 03:06:17;;;;;;;11.82;5.80;;;;;;;4.21;55.59;98264.56;3388079;29;20044;-72
2022/02/07 03:07:58;;;;;;;13.57;6.28;;;;;;;4.24;55.61;98256.28;3388992;29;20108;-72
2022/02/07 03:09:47;;;;;;;9.65;6.28;;;;;;;4.24;55.69;98253.66;3376448;29;20044;-71
2022/02/07 03:11:29;;;;;;;13.30;6.13;;;;;;;4.26;55.82;98259.56;3376192;29;20040;-72
2022/02/07 03:16:36;;;;;;;10.77;6.03;;;;;;;4.27;55.71;98258.53;3375692;29;20108;-72
2022/02/07 03:17:00;;;;;;;11.90;5.90;;;;;;;4.25;55.84;98255.25;3350632;29;20531;-72
2022/02/07 03:18:41;;;;;;;9.27;5.50;;;;;;;4.31;55.90;98257.16;3360928;29;20045;-72
2022/02/07 03:20:22;;;;;;;8.88;5.32;;;;;;;4.32;55.96;98255.34;3375872;29;20473;-71
2022/02/07 03:22:03;;;;;;;7.22;5.22;;;;;;;4.31;56.24;98249.25;3390145;29;21159;-75
2022/02/07 03:23:44;;;;;;;8.88;5.68;;;;;;;4.31;56.06;98243.13;3375978;29;20100;-75
2022/02/07 03:25:25;;;;;;;10.52;5.85;;;;;;;4.38;56.13;98260.66;3373857;29;20536;-72
2022/02/07 03:27:08;;;;;;;7.60;5.07;;;;;;;4.38;56.31;98242.19;3373517;29;21327;-73
2022/02/07 03:28:53;;;;;;;11.55;6.05;;;;;;;4.43;56.32;98248.72;3373812;29;20056;-73
2022/02/07 03:30:35;;;;;;;9.57;5.80;;;;;;;4.49;56.41;98255.88;3373574;29;20060;-72
2022/02/07 03:32:15;;;;;;;8.05;5.43;;;;;;;4.51;56.38;98248.59;3373834;29;20135;-73
2022/02/07 03:34:19;;;;;;;10.15;5.75;;;;;;;4.48;56.20;98235.78;3394402;29;20052;-74
2022/02/07 03:36:02;;;;;;;7.70;5.20;;;;;;;4.50;56.17;98225.84;3395329;29;20050;-73
2022/02/07 03:37:43;;;;;;;7.88;4.68;;;;;;;4.57;56.17;98234.66;3390648;29;20051;-73
2022/02/07 03:39:27;;;;;;;6.07;4.80;;;;;;;4.56;56.06;98239.09;3373602;29;20040;-73
2022/02/07 03:41:08;;;;;;;10.40;6.40;;;;;;;4.55;56.29;98226.09;3360280;29;20072;-74
2022/02/07 03:42:51;;;;;;;11.43;5.53;;;;;;;4.62;56.38;98240.16;3371838;29;20595;-75
2022/02/07 03:44:32;;;;;;;7.03;5.55;;;;;;;4.62;56.46;98234.88;3395385;29;20420;-73
2022/02/07 03:46:14;;;;;;;9.63;6.07;;;;;;;4.65;56.32;98236.31;3374951;29;20520;-73
2022/02/07 03:47:57;;;;;;;9.10;5.20;;;;;;;4.65;56.36;98231.84;3373631;29;20376;-76
2022/02/07 03:49:45;;;;;;;7.30;5.05;;;;;;;4.68;56.25;98236.75;3387146;29;20060;-72
2022/02/07 03:51:26;;;;;;;12.85;5.75;;;;;;;4.67;56.18;98235.09;3375096;29;20049;-73
2022/02/07 03:53:07;;;;;;;10.07;5.60;;;;;;;4.67;56.17;98221.91;3373887;29;20040;-72
2022/02/07 03:54:59;;;;;;;8.35;5.32;;;;;;;4.74;56.26;98224.59;3397755;29;20503;-71
2022/02/07 03:56:40;;;;;;;6.47;5.75;;;;;;;4.75;56.30;98228.84;3375881;29;20051;-72
2022/02/07 03:58:21;;;;;;;11.57;5.60;;;;;;;4.75;56.35;98218.28;3373269;29;20050;-72
2022/02/07 04:00:06;;;;;;;10.10;6.30;;;;;;;4.80;56.39;98229.94;3385993;29;20456;-72
2022/02/07 04:01:55;;;;;;;13.98;6.80;;;;;;;4.82;56.19;98221.81;3388767;29;20490;-74
2022/02/07 04:03:48;;;;;;;9.98;5.93;;;;;;;4.82;56.13;98227.88;3362841;29;20059;-73
2022/02/07 04:07:12;;;;;;;10.60;6.68;;;;;;;4.82;56.22;98213.88;3373048;29;20060;-73
2022/02/07 04:08:58;;;;;;;12.48;6.40;;;;;;;4.82;56.24;98222.59;3399138;29;20046;-72
2022/02/07 04:12:32;;;;;;;11.88;5.97;;;;;;;4.87;56.23;98222.03;3379868;29;20048;-72
2022/02/07 04:14:21;;;;;;;9.93;5.82;;;;;;;4.91;56.40;98220.66;3387449;29;20167;-73
2022/02/07 04:16:06;;;;;;;16.20;7.75;;;;;;;4.94;56.17;98214.16;3388769;29;20526;-72
2022/02/07 04:17:57;;;;;;;16.98;7.05;;;;;;;4.99;56.44;98223.13;3375624;29;20045;-73
2022/02/07 04:19:39;;;;;;;11.05;7.03;;;;;;;5.01;56.26;98220.31;3373324;29;20120;-72
2022/02/07 04:21:22;;;;;;;9.93;6.72;;;;;;;5.02;56.27;98211.34;3373642;29;20093;-74
2022/02/07 04:23:03;;;;;;;11.55;7.43;;;;;;;5.06;56.22;98217.91;3393058;29;20409;-75
2022/02/07 04:24:58;;;;;;;10.73;7.10;;;;;;;5.09;56.16;98220.13;3385267;29;20037;-72
2022/02/07 04:26:45;;;;;;;14.48;6.65;;;;;;;5.13;56.27;98210.78;3372794;29;20049;-73
2022/02/07 04:28:27;;;;;;;13.43;6.97;;;;;;;5.13;56.00;98213.44;3373398;29;20162;-75
2022/02/07 04:30:09;;;;;;;8.88;6.20;;;;;;;5.13;56.12;98215.25;3372787;29;20057;-76
2022/02/07 04:31:53;;;;;;;12.23;7.35;;;;;;;5.13;56.13;98209.97;3373778;29;20048;-78
2022/02/07 04:33:35;;;;;;;14.30;7.70;;;;;;;5.11;56.04;98218.13;3371343;29;20503;-76
2022/02/07 04:35:15;;;;;;;13.40;7.18;;;;;;;5.02;56.11;98203.44;3371243;29;20154;-77
2022/02/07 04:36:57;;;;;;;10.00;7.95;;;;;;;5.02;56.04;98212.16;3387655;29;20048;-78
2022/02/07 04:38:38;;;;;;;;;;;;;;;5.19;55.83;98212.66;3376019;29;20053;-76
2022/02/07 04:40:20;;;;;;;13.75;7.30;;;;;;;5.12;56.17;98213.66;3385802;29;19923;-76
2022/02/07 04:42:06;;;;;;;10.73;7.20;;;;;;;5.12;56.23;98214.47;3375781;29;20051;-76
2022/02/07 04:43:52;;;;;;;11.43;7.57;;;;;;;5.18;56.15;98211.03;3381147;29;20293;-77
2022/02/07 04:45:45;;;;;;;11.18;6.78;;;;;;;5.22;56.35;98212.28;3349516;29;20061;-77
2022/02/07 04:49:45;;;;;;;11.55;7.13;;;;;;;5.24;56.42;98215.53;3376518;29;20127;-77
2022/02/07 04:51:46;;;;;;;10.95;6.95;;;;;;;5.25;56.34;98222.44;3362718;29;20175;-78
2022/02/07 04:54:06;;;;;;;14.48;8.00;;;;;;;5.16;56.38;98210.44;3377183;29;20087;-79
2022/02/07 04:59:18;;;;;;;18.55;8.32;;;;;;;4.82;56.31;98209.41;3373682;29;20520;-76
2022/02/07 05:01:24;;;;;;;10.60;7.28;;;;;;;4.72;56.39;98214.22;3373186;29;20036;-78
2022/02/07 05:04:57;;;;;;;14.52;8.55;;;;;;;4.64;56.50;98211.72;3371845;29;20429;-77
2022/02/07 05:14:45;;;;;;;14.18;8.65;;;;;;;4.37;56.73;98210.75;3375812;29;20079;-77
2022/02/07 05:16:28;;;;;;;12.45;7.85;;;;;;;4.27;56.94;98197.06;3379361;29;20099;-77
2022/02/07 05:18:30;;;;;;;14.70;8.57;;;;;;;4.25;57.17;98197.25;3392027;29;20060;-77
2022/02/07 05:20:25;;;;;;;12.48;7.03;;;;;;;4.25;57.22;98197.25;3375308;29;20052;-73
2022/02/07 05:22:40;;;;;;;10.93;6.32;;;;;;;4.45;57.66;98199.25;3371517;29;20072;-78
2022/02/07 05:24:29;;;;;;;10.75;6.03;;;;;;;4.65;58.33;98200.19;3393935;29;20514;-82
2022/02/07 05:26:13;;;;;;;13.23;7.43;;;;;;;4.76;58.32;98191.72;3393324;29;20097;-77
2022/02/07 05:28:12;;;;;;;13.93;7.35;;;;;;;4.94;58.14;98198.31;3381692;29;20100;-74
2022/02/07 05:30:16;;;;;;;17.67;8.32;;;;;;;5.05;58.01;98200.41;3388140;29;20143;-76
2022/02/07 05:32:17;;;;;;;15.65;7.93;;;;;;;5.06;57.85;98199.41;3396636;29;20135;-76
2022/02/07 05:34:33;;;;;;;9.98;6.60;;;;;;;5.16;57.66;98207.78;3386230;29;20051;-76
2022/02/07 05:36:32;;;;;;;12.77;7.45;;;;;;;5.16;57.72;98202.50;3383081;29;20401;-75
2022/02/07 05:38:36;;;;;;;13.60;8.43;;;;;;;5.14;57.78;98215.09;3393133;29;20052;-78
2022/02/07 05:41:00;;;;;;;13.77;7.70;;;;;;;5.15;57.66;98205.31;3380093;29;20083;-80
2022/02/07 05:42:52;;;;;;;13.50;6.72;;;;;;;5.10;57.76;98199.81;3389044;29;20040;-76
2022/02/07 05:44:59;;;;;;;13.75;7.28;;;;;;;5.13;57.59;98208.16;3361922;29;20045;-80
2022/02/07 05:46:59;;;;;;;13.65;8.55;;;;;;;5.11;57.95;98207.56;3378651;29;20539;-80
2022/02/07 05:49:09;;;;;;;14.95;6.70;;;;;;;5.28;58.48;98204.56;3348850;29;20053;-79
2022/02/07 05:51:08;;;;;;;15.65;7.53;;;;;;;5.34;58.12;98199.28;3372201;29;20127;-73
2022/02/07 05:53:12;;;;;;;13.73;6.45;;;;;;;5.43;57.95;98202.59;3387670;29;20048;-79
2022/02/07 05:55:11;;;;;;;20.13;6.82;;;;;;;5.42;57.62;98209.72;3374401;29;20154;-76
2022/02/07 05:57:25;;;;;;;10.95;6.22;;;;;;;5.40;57.44;98205.66;3386570;29;20048;-78
2022/02/07 05:59:26;;;;;;;15.32;6.90;;;;;;;5.41;57.36;98207.25;3387931;29;20052;-77
2022/02/07 06:01:19;;;;;;;17.75;7.47;;;;;;;5.42;57.63;98200.94;3390090;29;20040;-77
2022/02/07 06:03:00;;;;;;;8.07;4.82;;;;;;;5.52;58.35;98201.41;3387131;29;20139;-76
2022/02/07 06:04:47;;;;;;;14.15;5.32;;;;;;;5.71;59.09;98199.84;3372692;29;20468;-78
2022/02/07 06:06:28;;;;;;;14.60;7.43;;;;;;;5.78;59.18;98176.03;3395067;29;20103;-77
2022/02/07 06:08:09;;;;;;;15.60;7.43;;;;;;;5.99;58.64;98199.72;3387232;29;20048;-78
2022/02/07 06:09:50;;;;;;;13.23;8.00;;;;;;;6.04;58.04;98192.00;3398986;29;20311;-76
2022/02/07 06:11:31;;;;;;;18.80;6.78;;;;;;;6.04;57.73;98194.63;3383394;29;20048;-73
2022/02/07 06:13:17;;;;;;;10.75;6.15;;;;;;;6.05;57.99;98188.31;3383874;29;20621;-77
2022/02/07 06:15:00;;;;;;;10.18;6.40;;;;;;;6.16;57.88;98194.03;3374302;29;20101;-75
2022/02/07 06:16:41;;;;;;;10.57;6.22;;;;;;;6.19;57.24;98204.19;3378160;29;20476;-77
2022/02/07 06:18:23;;;;;;;14.35;8.27;;;;;;;6.20;57.10;98203.19;3395875;29;20054;-77
2022/02/07 06:20:06;;;;;;;14.35;7.00;;;;;;;6.19;56.75;98207.66;3387047;29;20084;-77
2022/02/07 06:21:48;;;;;;;11.25;6.82;;;;;;;6.22;56.78;98209.06;3385076;29;20051;-76
2022/02/07 06:23:29;;;;;;;12.82;6.40;;;;;;;6.23;56.52;98200.13;3375611;29;20120;-76
2022/02/07 06:25:17;;;;;;;13.55;6.40;;;;;;;6.21;56.45;98208.25;3359266;29;20057;-78
2022/02/07 06:26:57;;;;;;;10.15;6.95;;;;;;;6.19;56.32;98210.28;3370617;29;20247;-78
2022/02/07 06:28:39;;;;;;;12.73;6.88;;;;;;;6.17;56.25;98206.22;3385178;29;20163;-77
2022/02/07 06:30:22;;;;;;;11.90;6.93;;;;;;;6.11;56.35;98192.78;3392515;29;20111;-77
2022/02/07 06:32:04;;;;;;;;;;;;;;;6.24;56.13;98191.16;3373783;29;20050;-75
2022/02/07 06:33:45;;;;;;;9.95;6.20;;;;;;;6.11;55.93;98198.06;3371043;29;19957;-76
2022/02/07 06:35:28;;;;;;;16.65;7.43;;;;;;;6.09;56.05;98194.84;3359443;29;20143;-78
2022/02/07 06:37:09;;;;;;;11.25;6.03;;;;;;;6.13;56.35;98199.72;3377555;29;20040;-78
2022/02/07 06:38:53;;;;;;;13.52;7.05;;;;;;;6.17;56.03;98190.34;3374348;29;20401;-77
2022/02/07 06:40:34;;;;;;;12.95;7.00;;;;;;;6.17;55.79;98200.94;3371654;29;20088;-75
2022/02/07 06:42:17;;;;;;;12.95;7.07;;;;;;;6.13;55.75;98189.94;3374565;29;20040;-77
2022/02/07 06:44:00;;;;;;;14.27;7.32;;;;;;;6.05;55.52;98193.59;3374968;29;20040;-76
2022/02/07 06:45:41;;;;;;;14.45;7.15;;;;;;;6.03;55.63;98189.53;3380965;29;20140;-77
2022/02/07 06:47:22;;;;;;;13.30;6.97;;;;;;;6.02;55.66;98188.72;3374792;29;20084;-77
2022/02/07 06:49:03;;;;;;;12.85;6.43;;;;;;;5.97;55.84;98175.28;3373467;29;20880;-78
2022/02/07 06:50:44;;;;;;;14.33;7.07;;;;;;;6.08;55.64;98185.25;3374136;29;20045;-77
2022/02/07 06:52:26;;;;;;;17.95;7.60;;;;;;;6.08;55.62;98185.25;3390564;29;20510;-78
2022/02/07 06:54:06;;;;;;;10.45;5.78;;;;;;;6.14;55.75;98188.91;3366621;29;20041;-75
2022/02/07 06:55:48;;;;;;;15.05;6.15;;;;;;;6.24;55.76;98197.25;3387396;29;20091;-78
2022/02/07 06:57:29;;;;;;;;;;;;;;;6.41;55.84;98191.59;3353780;29;20081;-77
2022/02/07 06:59:15;;;;;;;10.07;5.82;;;;;;;6.39;55.49;98189.13;3383901;29;19986;-75
2022/02/07 07:00:56;;;;;;;9.25;5.95;;;;;;;6.38;55.36;98189.34;3376269;29;20040;-76
2022/02/07 07:02:39;;;;;;;10.20;7.00;;;;;;;6.39;55.16;98194.41;3373590;29;20048;-78
2022/02/07 07:04:19;;;;;;;11.82;6.97;;;;;;;6.34;55.13;98194.22;3374158;29;20036;-79
2022/02/07 07:06:04;;;;;;;11.18;6.35;;;;;;;6.28;55.25;98190.56;3387169;29;20074;-77
2022/02/07 07:07:46;;;;;;;12.57;6.10;;;;;;;6.26;55.41;98183.84;3363406;29;20182;-76
2022/02/07 07:09:29;;;;;;;10.82;8.40;;;;;;;6.27;55.35;98188.94;3369100;29;20131;-77
2022/02/07 07:11:13;;;;;;;10.38;6.40;;;;;;;6.33;55.18;98192.59;3382059;29;20430;-78
2022/02/07 07:13:01;;;;;;;6.78;4.70;;;;;;;6.43;55.93;98190.38;3380750;29;20064;-78
2022/02/07 07:14:47;;;;;;;11.43;6.07;;;;;;;6.55;55.82;98187.88;3374888;29;20452;-78
2022/02/07 07:18:10;;;;;;;13.48;6.03;;;;;;;6.72;55.25;98198.88;3386899;29;20048;-76
2022/02/07 07:19:53;;;;;;;13.32;7.15;;;;;;;6.70;54.86;98187.66;3375467;29;20041;-77
2022/02/07 07:21:34;;;;;;;10.88;6.50;;;;;;;6.72;54.73;98194.38;3394733;29;21070;-77
2022/02/07 07:23:16;;;;;;;;;;;;;;;6.80;54.45;98196.00;3376899;29;20147;-77
2022/02/07 07:25:01;;;;;;;8.27;5.45;;;;;;;6.68;54.55;98195.81;3374046;29;19927;-78
2022/02/07 07:26:42;;;;;;;8.45;5.80;;;;;;;6.60;54.69;98188.09;3387608;29;20083;-75
2022/02/07 07:28:26;;;;;;;10.18;6.45;;;;;;;6.58;54.70;98197.25;3389664;29;20044;-77
2022/02/07 07:30:10;;;;;;;9.90;6.72;;;;;;;6.55;54.69;98190.53;3375657;29;20045;-76
2022/02/07 07:31:56;;;;;;;9.45;6.07;;;;;;;6.55;54.62;98188.69;3373567;29;20064;-77
2022/02/07 07:33:41;;;;;;;11.52;6.47;;;;;;;6.52;54.82;98193.59;3387566;29;20141;-76
2022/02/07 07:35:22;;;;;;;13.70;6.32;;;;;;;6.49;54.69;98189.53;3376074;29;20045;-77
2022/02/07 07:37:03;;;;;;;10.82;6.72;;;;;;;6.47;54.72;98182.81;3377626;29;20104;-76
2022/02/07 07:38:44;;;;;;;9.27;6.35;;;;;;;6.39;54.89;98183.84;3378230;29;20154;-77
2022/02/07 07:40:26;;;;;;;10.33;5.60;;;;;;;6.41;54.68;98189.75;3388142;29;20107;-77
2022/02/07 07:42:07;;;;;;;7.97;5.82;;;;;;;6.40;54.79;98184.66;3391036;29;20300;-77
2022/02/07 07:44:16;;;;;;;9.60;5.95;;;;;;;6.38;54.73;98187.50;3389396;29;20531;-77
2022/02/07 07:46:11;;;;;;;14.13;6.55;;;;;;;6.38;54.72;98187.50;3378580;29;20514;-77
2022/02/07 07:48:05;;;;;;;11.68;5.72;;;;;;;6.36;54.91;98189.53;3375494;29;20089;-76
2022/02/07 07:50:19;;;;;;;11.45;5.82;;;;;;;6.38;54.80;98187.50;3371778;29;20058;-77
2022/02/07 07:52:57;;;;;;;9.27;5.90;;;;;;;6.36;54.81;98189.53;3336047;29;20415;-77
2022/02/07 07:54:58;;;;;;;13.93;6.90;;;;;;;6.32;54.76;98194.44;3375547;29;20048;-76
2022/02/07 08:02:38;;;;;;;13.98;6.90;;;;;;;6.24;55.01;98185.88;3375430;29;20066;-79
2022/02/07 08:04:25;;;;;;;10.77;5.18;;;;;;;6.26;55.39;98183.84;3372867;29;20424;-78
2022/02/07 08:06:13;;;;;;;8.13;5.72;;;;;;;6.28;55.61;98197.69;3373375;29;20883;-77
2022/02/07 08:08:05;;;;;;;8.57;5.55;;;;;;;6.28;55.41;98192.41;3374066;29;20116;-78
2022/02/07 08:11:31;;;;;;;8.50;6.03;;;;;;;6.28;55.41;98192.41;3375146;29;20108;-78
2022/02/07 08:13:17;;;;;;;6.82;5.55;;;;;;;6.29;55.43;98191.38;3373438;29;20119;-76
2022/02/07 08:15:04;;;;;;;12.57;6.40;;;;;;;6.31;55.34;98182.22;3386853;29;20084;-77
2022/02/07 08:16:46;;;;;;;13.43;6.43;;;;;;;6.35;55.35;98182.63;3394746;29;20491;-77
2022/02/07 08:18:27;;;;;;;6.20;4.97;;;;;;;6.39;55.29;98188.31;3402857;29;20134;-77
2022/02/07 08:20:08;;;;;;;9.32;5.25;;;;;;;6.39;55.38;98189.13;3388353;29;20056;-75
2022/02/07 08:21:49;;;;;;;9.63;5.93;;;;;;;6.44;55.56;98184.03;3389028;29;20044;-77
2022/02/07 08:23:30;;;;;;;8.98;5.18;;;;;;;6.41;55.46;98189.75;3388836;29;20039;-77
2022/02/07 08:25:10;;;;;;;6.88;5.10;;;;;;;6.35;55.49;98172.06;3390782;29;20047;-79
2022/02/07 08:26:53;;;;;;;10.75;5.50;;;;;;;6.40;55.58;98185.47;3397454;29;20058;-77
2022/02/07 08:28:34;;;;;;;7.65;5.10;;;;;;;6.43;55.57;98182.41;3388860;29;20048;-76
2022/02/07 08:30:17;;;;;;;9.00;5.35;;;;;;;6.42;55.62;98178.13;3399534;29;20052;-77
2022/02/07 08:31:57;;;;;;;12.15;6.20;;;;;;;6.42;55.57;98183.41;3375313;29;20048;-76
2022/02/07 08:33:38;;;;;;;8.75;5.93;;;;;;;6.38;55.33;98179.56;3370653;29;20040;-76
2022/02/07 08:35:19;;;;;;;9.45;5.13;;;;;;;6.43;55.63;98190.38;3377771;29;20055;-77
2022/02/07 08:37:02;;;;;;;8.07;5.05;;;;;;;6.42;55.73;98183.41;3388575;29;20136;-74
2022/02/07 08:38:43;;;;;;;7.60;5.47;;;;;;;6.47;55.63;98191.56;3388320;29;20051;-74
2022/02/07 08:40:25;;;;;;;10.70;5.80;;;;;;;6.48;55.58;98181.78;3379217;29;20049;-74
2022/02/07 08:42:06;;;;;;;9.02;5.47;;;;;;;6.46;55.12;98187.31;3372430;29;20064;-73
2022/02/07 08:43:52;;;;;;;9.00;5.63;;;;;;;6.42;55.17;98183.41;3390027;29;20043;-73
2022/02/07 08:45:35;;;;;;;8.02;5.40;;;;;;;6.38;55.08;98190.16;3401939;29;20067;-73
2022/02/07 08:47:17;;;;;;;13.68;6.90;;;;;;;6.33;55.03;98182.03;3389032;29;20036;-73
2022/02/07 08:49:00;;;;;;;7.28;5.32;;;;;;;6.30;55.08;98185.88;3373453;29;20633;-73
2022/02/07 08:50:43;;;;;;;9.52;5.25;;;;;;;6.27;55.04;98181.00;3383433;29;20070;-72
2022/02/07 08:52:25;;;;;;;10.50;6.90;;;;;;;6.22;55.14;98183.44;3386637;29;20171;-75
2022/02/07 08:54:08;;;;;;;9.48;5.78;;;;;;;6.23;54.97;98178.97;3387241;29;20051;-77
2022/02/07 08:55:52;;;;;;;8.77;6.53;;;;;;;6.19;55.04;98186.47;3384424;29;20145;-75
2022/02/07 08:57:38;;;;;;;7.05;4.85;;;;;;;6.15;55.00;98190.56;3383791;29;20045;-76
2022/02/07 08:59:26;;;;;;;9.60;5.78;;;;;;;6.13;54.95;98183.84;3383065;29;20139;-74
2022/02/07 09:01:17;;;;;;;9.68;6.65;;;;;;;6.09;55.04;98186.91;3387116;29;20054;-75
2022/02/07 09:04:56;;;;;;;14.98;6.82;;;;;;;6.06;55.02;98176.72;3386959;29;20044;-73
2022/02/07 09:06:53;;;;;;;12.85;6.55;;;;;;;6.04;54.93;98181.41;3387278;29;20103;-75
2022/02/07 09:10:24;;;;;;;9.25;5.53;;;;;;;5.99;54.93;98178.56;3386330;29;20044;-76
2022/02/07 09:12:08;;;;;;;10.50;5.82;;;;;;;5.99;54.69;98173.28;3387012;29;20637;-76
2022/02/07 09:13:57;;;;;;;9.82;6.53;;;;;;;5.98;55.04;98176.09;3385383;29;20851;-75
2022/02/07 09:17:22;;;;;;;12.10;6.88;;;;;;;5.90;54.84;98161.22;3370640;29;20052;-76
2022/02/07 09:19:05;;;;;;;13.85;6.57;;;;;;;5.83;54.83;98153.28;3364526;29;20037;-77
2022/02/07 09:20:50;;;;;;;10.35;6.40;;;;;;;5.95;54.66;98177.31;3384463;29;20424;-75
2022/02/07 09:22:32;;;;;;;9.30;6.80;;;;;;;5.85;54.99;98158.38;3371335;29;20065;-76
2022/02/07 09:24:17;;;;;;;9.70;7.05;;;;;;;5.88;54.88;98164.06;3361041;29;20140;-73
2022/02/07 09:25:58;;;;;;;8.30;6.43;;;;;;;5.92;54.86;98171.59;3370963;29;20457;-74
2022/02/07 09:27:40;;;;;;;11.48;6.50;;;;;;;5.95;54.86;98172.03;3362685;29;20045;-75
2022/02/07 09:29:23;;;;;;;10.32;6.53;;;;;;;5.97;54.81;98169.19;3372702;29;20551;-74
2022/02/07 09:31:05;;;;;;;11.65;7.07;;;;;;;5.97;54.77;98170.00;3347927;29;20080;-73
2022/02/07 09:32:46;;;;;;;8.63;6.82;;;;;;;5.94;54.62;98164.28;3375251;29;20060;-74
2022/02/07 09:34:27;;;;;;;9.50;6.93;;;;;;;5.94;54.68;98165.13;3376801;29;20419;-75
2022/02/07 09:36:09;;;;;;;14.80;7.93;;;;;;;5.99;54.67;98173.28;3380289;29;20115;-75
2022/02/07 09:37:52;;;;;;;11.60;7.32;;;;;;;5.84;54.71;98143.53;3386600;29;20047;-74
2022/02/07 09:39:33;;;;;;;9.98;7.30;;;;;;;5.93;54.74;98152.88;3372699;29;20052;-75
2022/02/07 09:41:17;;;;;;;12.82;6.45;;;;;;;6.00;54.62;98166.94;3384300;29;20044;-76
2022/02/07 09:43:00;;;;;;;10.43;6.85;;;;;;;5.89;54.67;98147.19;3373566;29;20128;-74
2022/02/07 09:44:51;;;;;;;9.95;6.80;;;;;;;6.03;54.71;98176.31;3372890;29;20036;-77
2022/02/07 09:46:44;;;;;;;13.13;7.43;;;;;;;6.01;54.60;98165.94;3357229;29;20140;-74
2022/02/07 09:48:25;;;;;;;14.55;8.15;;;;;;;6.08;54.40;98173.88;3372967;29;20040;-72
2022/02/07 09:50:07;;;;;;;16.67;7.40;;;;;;;6.04;54.48;98170.84;3384961;29;20039;-73
2022/02/07 09:51:49;;;;;;;15.63;8.27;;;;;;;6.09;54.52;98171.03;3373265;29;20048;-75
2022/02/07 09:53:30;;;;;;;12.27;7.47;;;;;;;6.08;54.47;98172.03;3372141;29;20033;-72
2022/02/07 09:55:11;;;;;;;11.27;7.20;;;;;;;6.07;54.47;98174.91;3368536;29;20077;-73
2022/02/07 09:56:54;;;;;;;10.75;7.22;;;;;;;6.05;54.55;98164.50;3372178;29;20064;-72
2022/02/07 09:58:38;;;;;;;9.88;7.03;;;;;;;6.07;54.70;98159.84;3375435;29;20040;-72
2022/02/07 10:00:22;;;;;;;13.10;7.18;;;;;;;6.10;54.47;98164.72;3373975;29;20072;-72
2022/02/07 10:02:14;;;;;;;12.00;7.30;;;;;;;6.10;54.34;98156.78;3374732;29;20067;-72
2022/02/07 10:04:15;;;;;;;14.00;7.50;;;;;;;6.17;54.28;98153.31;3374333;29;20040;-73
2022/02/07 10:06:11;;;;;;;10.88;7.95;;;;;;;6.17;54.30;98159.44;3372576;29;20041;-74
2022/02/07 10:09:48;;;;;;;12.70;7.22;;;;;;;6.21;54.20;98151.91;3374279;29;20032;-72